Atibaia, Brazil
Current Conditions -  °F | °C
As of 2:00 AM on Monday 24 Nov 2014 (Local Time) from SBGR Reporting Station
Overcast Overcast  
Wind Chill: 66°   Ceiling: 600
Heat Index: 66°   Visibility: 6mi
Dew Point: 66°   Wind: 5mph
Humidity: 100%   Direction: 120°ESE
Pressure: 30.06"   Gusts: NA
Location:  23.12°S, 46.57°W
Report Text: SBGR 240400Z 12004KT 9999 OVC006 19/19 Q1018
Loading
Personal Weather Stations






























Interactive Weather Map New forecast layout! Learn more

10-Day Weather Forecast

Advertisements
Track Severe Weather on mobile